sensor_id;sensor_type;location;lat;lon;timestamp;P1;durP1;ratioP1;P2;durP2;ratioP2
67092;SDS011;54011;50.772;7.730;2022-12-08T00:00:52;9.10;;;5.07;;
67092;SDS011;54011;50.772;7.730;2022-12-08T00:03:18;14.15;;;7.25;;
67092;SDS011;54011;50.772;7.730;2022-12-08T00:05:44;30.30;;;13.60;;
67092;SDS011;54011;50.772;7.730;2022-12-08T00:08:34;17.52;;;7.82;;
67092;SDS011;54011;50.772;7.730;2022-12-08T00:11:18;20.98;;;10.20;;
67092;SDS011;54011;50.772;7.730;2022-12-08T00:13:44;33.60;;;14.57;;
67092;SDS011;54011;50.772;7.730;2022-12-08T00:16:10;26.67;;;13.75;;
67092;SDS011;54011;50.772;7.730;2022-12-08T00:18:35;18.02;;;9.10;;
67092;SDS011;54011;50.772;7.730;2022-12-08T00:21:01;27.33;;;13.38;;
67092;SDS011;54011;50.772;7.730;2022-12-08T00:23:26;33.80;;;13.75;;
67092;SDS011;54011;50.772;7.730;2022-12-08T00:25:54;27.55;;;13.05;;
67092;SDS011;54011;50.772;7.730;2022-12-08T00:28:19;26.15;;;12.20;;
67092;SDS011;54011;50.772;7.730;2022-12-08T00:30:45;29.00;;;12.27;;
67092;SDS011;54011;50.772;7.730;2022-12-08T00:33:10;16.30;;;6.13;;
67092;SDS011;54011;50.772;7.730;2022-12-08T00:35:36;30.00;;;14.93;;
67092;SDS011;54011;50.772;7.730;2022-12-08T00:38:01;25.15;;;11.27;;
67092;SDS011;54011;50.772;7.730;2022-12-08T00:40:27;28.15;;;14.15;;
67092;SDS011;54011;50.772;7.730;2022-12-08T00:42:52;33.67;;;14.57;;
67092;SDS011;54011;50.772;7.730;2022-12-08T00:45:18;20.42;;;10.75;;
67092;SDS011;54011;50.772;7.730;2022-12-08T00:47:43;21.88;;;11.68;;
67092;SDS011;54011;50.772;7.730;2022-12-08T00:50:08;26.05;;;11.93;;
67092;SDS011;54011;50.772;7.730;2022-12-08T00:52:37;26.25;;;13.63;;
67092;SDS011;54011;50.772;7.730;2022-12-08T00:55:03;33.97;;;15.00;;
67092;SDS011;54011;50.772;7.730;2022-12-08T00:57:31;30.75;;;15.82;;
67092;SDS011;54011;50.772;7.730;2022-12-08T00:59:56;27.73;;;14.57;;
67092;SDS011;54011;50.772;7.730;2022-12-08T01:02:22;21.85;;;11.60;;
67092;SDS011;54011;50.772;7.730;2022-12-08T01:04:48;18.95;;;8.70;;
67092;SDS011;54011;50.772;7.730;2022-12-08T01:07:14;17.20;;;8.02;;
67092;SDS011;54011;50.772;7.730;2022-12-08T01:09:39;10.02;;;5.82;;
67092;SDS011;54011;50.772;7.730;2022-12-08T01:12:06;37.63;;;17.50;;
67092;SDS011;54011;50.772;7.730;2022-12-08T01:14:32;31.58;;;14.13;;
67092;SDS011;54011;50.772;7.730;2022-12-08T01:16:57;33.42;;;15.25;;
67092;SDS011;54011;50.772;7.730;2022-12-08T01:19:22;26.00;;;13.63;;
67092;SDS011;54011;50.772;7.730;2022-12-08T01:21:48;24.05;;;12.07;;
67092;SDS011;54011;50.772;7.730;2022-12-08T01:24:15;25.20;;;13.10;;
67092;SDS011;54011;50.772;7.730;2022-12-08T01:26:43;25.50;;;14.00;;
67092;SDS011;54011;50.772;7.730;2022-12-08T01:29:11;21.52;;;12.50;;
67092;SDS011;54011;50.772;7.730;2022-12-08T01:31:36;32.40;;;15.23;;
67092;SDS011;54011;50.772;7.730;2022-12-08T01:34:05;27.25;;;13.82;;
67092;SDS011;54011;50.772;7.730;2022-12-08T01:36:35;26.88;;;13.20;;
67092;SDS011;54011;50.772;7.730;2022-12-08T01:39:02;30.58;;;14.20;;
67092;SDS011;54011;50.772;7.730;2022-12-08T01:41:30;25.92;;;11.90;;
67092;SDS011;54011;50.772;7.730;2022-12-08T01:43:59;23.95;;;12.55;;
67092;SDS011;54011;50.772;7.730;2022-12-08T01:46:47;28.40;;;12.40;;
67092;SDS011;54011;50.772;7.730;2022-12-08T01:51:50;29.83;;;12.35;;
67092;SDS011;54011;50.772;7.730;2022-12-08T01:54:30;19.08;;;10.05;;
67092;SDS011;54011;50.772;7.730;2022-12-08T01:56:58;18.98;;;9.43;;
67092;SDS011;54011;50.772;7.730;2022-12-08T01:59:27;28.25;;;11.90;;
67092;SDS011;54011;50.772;7.730;2022-12-08T02:01:54;25.20;;;11.82;;
67092;SDS011;54011;50.772;7.730;2022-12-08T02:04:21;22.42;;;9.82;;
67092;SDS011;54011;50.772;7.730;2022-12-08T02:06:46;18.42;;;9.85;;
67092;SDS011;54011;50.772;7.730;2022-12-08T02:09:13;23.60;;;11.13;;
67092;SDS011;54011;50.772;7.730;2022-12-08T02:11:42;25.63;;;9.02;;
67092;SDS011;54011;50.772;7.730;2022-12-08T02:14:08;21.13;;;9.60;;
67092;SDS011;54011;50.772;7.730;2022-12-08T02:19:59;20.23;;;9.85;;
67092;SDS011;54011;50.772;7.730;2022-12-08T02:33:47;16.48;;;8.63;;
67092;SDS011;54011;50.772;7.730;2022-12-08T02:36:30;19.58;;;9.18;;
67092;SDS011;54011;50.772;7.730;2022-12-08T02:39:01;18.48;;;9.35;;
67092;SDS011;54011;50.772;7.730;2022-12-08T02:42:04;21.15;;;8.75;;
67092;SDS011;54011;50.772;7.730;2022-12-08T02:44:34;17.20;;;8.45;;
67092;SDS011;54011;50.772;7.730;2022-12-08T02:47:14;8.48;;;4.15;;
67092;SDS011;54011;50.772;7.730;2022-12-08T02:49:45;18.10;;;7.93;;
67092;SDS011;54011;50.772;7.730;2022-12-08T02:54:40;14.77;;;7.78;;
67092;SDS011;54011;50.772;7.730;2022-12-08T03:00:07;16.02;;;8.13;;
67092;SDS011;54011;50.772;7.730;2022-12-08T03:08:31;17.67;;;7.07;;
67092;SDS011;54011;50.772;7.730;2022-12-08T03:11:09;12.23;;;6.03;;
67092;SDS011;54011;50.772;7.730;2022-12-08T03:13:43;12.02;;;5.80;;
67092;SDS011;54011;50.772;7.730;2022-12-08T03:16:13;15.55;;;6.38;;
67092;SDS011;54011;50.772;7.730;2022-12-08T03:18:44;12.18;;;6.25;;
67092;SDS011;54011;50.772;7.730;2022-12-08T03:21:13;14.30;;;6.28;;
67092;SDS011;54011;50.772;7.730;2022-12-08T03:23:41;14.65;;;6.25;;
67092;SDS011;54011;50.772;7.730;2022-12-08T03:26:29;6.35;;;3.67;;
67092;SDS011;54011;50.772;7.730;2022-12-08T03:28:58;10.07;;;5.22;;
67092;SDS011;54011;50.772;7.730;2022-12-08T03:31:25;11.73;;;6.18;;
67092;SDS011;54011;50.772;7.730;2022-12-08T03:33:52;14.15;;;6.47;;
67092;SDS011;54011;50.772;7.730;2022-12-08T03:36:20;7.57;;;3.78;;
67092;SDS011;54011;50.772;7.730;2022-12-08T03:38:49;13.23;;;6.82;;
67092;SDS011;54011;50.772;7.730;2022-12-08T03:41:16;8.45;;;4.53;;
67092;SDS011;54011;50.772;7.730;2022-12-08T03:43:43;11.32;;;5.40;;
67092;SDS011;54011;50.772;7.730;2022-12-08T03:46:10;7.82;;;4.32;;
67092;SDS011;54011;50.772;7.730;2022-12-08T03:48:36;11.90;;;5.32;;
67092;SDS011;54011;50.772;7.730;2022-12-08T03:51:02;11.35;;;5.07;;
67092;SDS011;54011;50.772;7.730;2022-12-08T03:53:29;13.95;;;5.80;;
67092;SDS011;54011;50.772;7.730;2022-12-08T03:55:54;10.25;;;5.70;;
67092;SDS011;54011;50.772;7.730;2022-12-08T03:58:20;8.18;;;3.47;;
67092;SDS011;54011;50.772;7.730;2022-12-08T04:00:45;9.02;;;4.80;;
67092;SDS011;54011;50.772;7.730;2022-12-08T04:03:10;10.38;;;5.32;;
67092;SDS011;54011;50.772;7.730;2022-12-08T04:05:36;9.23;;;5.22;;
67092;SDS011;54011;50.772;7.730;2022-12-08T04:08:03;15.82;;;5.55;;
67092;SDS011;54011;50.772;7.730;2022-12-08T04:10:28;9.32;;;3.80;;
67092;SDS011;54011;50.772;7.730;2022-12-08T04:12:55;9.10;;;4.65;;
67092;SDS011;54011;50.772;7.730;2022-12-08T04:15:20;11.32;;;5.22;;
67092;SDS011;54011;50.772;7.730;2022-12-08T04:17:46;9.13;;;4.82;;
67092;SDS011;54011;50.772;7.730;2022-12-08T04:20:11;10.30;;;5.22;;
67092;SDS011;54011;50.772;7.730;2022-12-08T04:22:37;8.65;;;3.70;;
67092;SDS011;54011;50.772;7.730;2022-12-08T04:25:02;8.25;;;3.83;;
67092;SDS011;54011;50.772;7.730;2022-12-08T04:27:28;10.02;;;4.05;;
67092;SDS011;54011;50.772;7.730;2022-12-08T04:29:54;7.30;;;4.25;;
67092;SDS011;54011;50.772;7.730;2022-12-08T04:32:19;7.15;;;3.80;;
67092;SDS011;54011;50.772;7.730;2022-12-08T04:34:45;11.98;;;5.25;;
67092;SDS011;54011;50.772;7.730;2022-12-08T04:37:10;6.43;;;3.30;;
67092;SDS011;54011;50.772;7.730;2022-12-08T04:39:36;10.80;;;4.57;;
67092;SDS011;54011;50.772;7.730;2022-12-08T04:42:01;7.90;;;4.25;;
67092;SDS011;54011;50.772;7.730;2022-12-08T04:44:27;9.55;;;4.85;;
67092;SDS011;54011;50.772;7.730;2022-12-08T04:46:53;9.75;;;4.43;;
67092;SDS011;54011;50.772;7.730;2022-12-08T04:49:18;10.65;;;4.35;;
67092;SDS011;54011;50.772;7.730;2022-12-08T04:51:43;9.23;;;4.25;;
67092;SDS011;54011;50.772;7.730;2022-12-08T04:54:09;10.40;;;4.65;;
67092;SDS011;54011;50.772;7.730;2022-12-08T04:56:34;8.27;;;4.40;;
67092;SDS011;54011;50.772;7.730;2022-12-08T04:59:01;7.22;;;3.83;;
67092;SDS011;54011;50.772;7.730;2022-12-08T05:01:26;11.60;;;3.88;;
67092;SDS011;54011;50.772;7.730;2022-12-08T05:03:52;4.25;;;2.28;;
67092;SDS011;54011;50.772;7.730;2022-12-08T05:06:17;8.45;;;4.10;;
67092;SDS011;54011;50.772;7.730;2022-12-08T05:08:43;7.25;;;3.53;;
67092;SDS011;54011;50.772;7.730;2022-12-08T05:11:09;10.77;;;4.22;;
67092;SDS011;54011;50.772;7.730;2022-12-08T05:13:36;7.88;;;4.15;;
67092;SDS011;54011;50.772;7.730;2022-12-08T05:16:05;11.40;;;5.07;;
67092;SDS011;54011;50.772;7.730;2022-12-08T05:18:33;8.23;;;3.83;;
67092;SDS011;54011;50.772;7.730;2022-12-08T05:21:00;9.63;;;4.32;;
67092;SDS011;54011;50.772;7.730;2022-12-08T05:23:27;10.38;;;4.60;;
67092;SDS011;54011;50.772;7.730;2022-12-08T05:25:52;12.52;;;4.70;;
67092;SDS011;54011;50.772;7.730;2022-12-08T05:28:18;6.22;;;3.75;;
67092;SDS011;54011;50.772;7.730;2022-12-08T05:30:43;9.77;;;4.82;;
67092;SDS011;54011;50.772;7.730;2022-12-08T05:33:09;10.18;;;4.68;;
67092;SDS011;54011;50.772;7.730;2022-12-08T05:35:34;11.27;;;5.13;;
67092;SDS011;54011;50.772;7.730;2022-12-08T05:38:01;15.70;;;5.15;;
67092;SDS011;54011;50.772;7.730;2022-12-08T05:40:27;10.43;;;5.38;;
67092;SDS011;54011;50.772;7.730;2022-12-08T05:42:52;10.02;;;3.97;;
67092;SDS011;54011;50.772;7.730;2022-12-08T05:45:19;11.57;;;4.80;;
67092;SDS011;54011;50.772;7.730;2022-12-08T05:47:45;5.40;;;3.25;;
67092;SDS011;54011;50.772;7.730;2022-12-08T05:50:10;8.60;;;2.58;;
67092;SDS011;54011;50.772;7.730;2022-12-08T05:52:36;11.02;;;4.60;;
67092;SDS011;54011;50.772;7.730;2022-12-08T05:55:01;9.35;;;5.13;;
67092;SDS011;54011;50.772;7.730;2022-12-08T05:57:27;5.00;;;3.13;;
67092;SDS011;54011;50.772;7.730;2022-12-08T05:59:53;6.80;;;3.17;;
67092;SDS011;54011;50.772;7.730;2022-12-08T06:02:21;10.40;;;4.78;;
67092;SDS011;54011;50.772;7.730;2022-12-08T06:04:46;9.63;;;4.70;;
67092;SDS011;54011;50.772;7.730;2022-12-08T06:07:11;11.80;;;5.60;;
67092;SDS011;54011;50.772;7.730;2022-12-08T06:09:38;11.68;;;5.75;;
67092;SDS011;54011;50.772;7.730;2022-12-08T06:12:04;9.50;;;5.18;;
67092;SDS011;54011;50.772;7.730;2022-12-08T06:14:31;10.63;;;4.60;;
67092;SDS011;54011;50.772;7.730;2022-12-08T06:17:05;13.05;;;4.90;;
67092;SDS011;54011;50.772;7.730;2022-12-08T06:19:30;10.93;;;5.32;;
67092;SDS011;54011;50.772;7.730;2022-12-08T06:21:57;8.07;;;4.80;;
67092;SDS011;54011;50.772;7.730;2022-12-08T06:24:23;15.30;;;6.18;;
67092;SDS011;54011;50.772;7.730;2022-12-08T06:26:48;10.85;;;5.15;;
67092;SDS011;54011;50.772;7.730;2022-12-08T06:29:14;14.70;;;6.38;;
67092;SDS011;54011;50.772;7.730;2022-12-08T06:31:39;12.10;;;6.20;;
67092;SDS011;54011;50.772;7.730;2022-12-08T06:34:05;13.82;;;5.68;;
67092;SDS011;54011;50.772;7.730;2022-12-08T06:36:30;11.88;;;6.18;;
67092;SDS011;54011;50.772;7.730;2022-12-08T06:38:56;9.63;;;5.30;;
67092;SDS011;54011;50.772;7.730;2022-12-08T06:41:26;12.50;;;5.90;;
67092;SDS011;54011;50.772;7.730;2022-12-08T06:43:58;15.45;;;6.63;;
67092;SDS011;54011;50.772;7.730;2022-12-08T06:46:23;15.23;;;6.90;;
67092;SDS011;54011;50.772;7.730;2022-12-08T06:48:48;14.52;;;6.65;;
67092;SDS011;54011;50.772;7.730;2022-12-08T06:51:19;14.07;;;6.53;;
67092;SDS011;54011;50.772;7.730;2022-12-08T06:53:47;11.95;;;5.60;;
67092;SDS011;54011;50.772;7.730;2022-12-08T06:56:12;15.60;;;7.57;;
67092;SDS011;54011;50.772;7.730;2022-12-08T06:58:39;14.15;;;5.95;;
67092;SDS011;54011;50.772;7.730;2022-12-08T07:01:06;17.00;;;6.72;;
67092;SDS011;54011;50.772;7.730;2022-12-08T07:03:33;13.90;;;6.22;;
67092;SDS011;54011;50.772;7.730;2022-12-08T07:05:59;11.85;;;6.05;;
67092;SDS011;54011;50.772;7.730;2022-12-08T07:08:26;13.70;;;6.40;;
67092;SDS011;54011;50.772;7.730;2022-12-08T07:10:51;14.75;;;6.43;;
67092;SDS011;54011;50.772;7.730;2022-12-08T07:13:17;13.20;;;5.45;;
67092;SDS011;54011;50.772;7.730;2022-12-08T07:15:44;15.77;;;5.57;;
67092;SDS011;54011;50.772;7.730;2022-12-08T07:18:09;14.85;;;7.53;;
67092;SDS011;54011;50.772;7.730;2022-12-08T07:20:37;13.15;;;6.75;;
67092;SDS011;54011;50.772;7.730;2022-12-08T07:23:03;16.08;;;7.25;;
67092;SDS011;54011;50.772;7.730;2022-12-08T07:25:29;12.35;;;6.78;;
67092;SDS011;54011;50.772;7.730;2022-12-08T07:27:54;18.42;;;7.68;;
67092;SDS011;54011;50.772;7.730;2022-12-08T07:30:20;18.92;;;7.03;;
67092;SDS011;54011;50.772;7.730;2022-12-08T07:32:45;13.68;;;6.22;;
67092;SDS011;54011;50.772;7.730;2022-12-08T07:35:11;14.80;;;7.00;;
67092;SDS011;54011;50.772;7.730;2022-12-08T07:37:37;13.15;;;7.22;;
67092;SDS011;54011;50.772;7.730;2022-12-08T07:40:04;15.10;;;6.38;;
67092;SDS011;54011;50.772;7.730;2022-12-08T07:42:32;16.58;;;5.57;;
67092;SDS011;54011;50.772;7.730;2022-12-08T07:44:59;14.45;;;7.20;;
67092;SDS011;54011;50.772;7.730;2022-12-08T07:47:25;16.15;;;7.68;;
67092;SDS011;54011;50.772;7.730;2022-12-08T07:49:50;16.08;;;7.63;;
67092;SDS011;54011;50.772;7.730;2022-12-08T07:52:16;13.18;;;5.88;;
67092;SDS011;54011;50.772;7.730;2022-12-08T07:54:41;12.85;;;5.32;;
67092;SDS011;54011;50.772;7.730;2022-12-08T07:57:07;14.30;;;6.15;;
67092;SDS011;54011;50.772;7.730;2022-12-08T07:59:34;7.45;;;3.33;;
67092;SDS011;54011;50.772;7.730;2022-12-08T08:02:00;6.70;;;3.47;;
67092;SDS011;54011;50.772;7.730;2022-12-08T08:04:25;12.40;;;6.50;;
67092;SDS011;54011;50.772;7.730;2022-12-08T08:06:51;11.43;;;4.88;;
67092;SDS011;54011;50.772;7.730;2022-12-08T08:09:16;11.35;;;5.75;;
67092;SDS011;54011;50.772;7.730;2022-12-08T08:11:41;15.32;;;5.97;;
67092;SDS011;54011;50.772;7.730;2022-12-08T08:14:10;14.60;;;6.40;;
67092;SDS011;54011;50.772;7.730;2022-12-08T08:16:35;14.10;;;5.90;;
67092;SDS011;54011;50.772;7.730;2022-12-08T08:19:01;9.85;;;5.45;;
67092;SDS011;54011;50.772;7.730;2022-12-08T08:21:28;12.77;;;5.85;;
67092;SDS011;54011;50.772;7.730;2022-12-08T08:23:53;11.57;;;5.85;;
67092;SDS011;54011;50.772;7.730;2022-12-08T08:26:18;14.20;;;6.57;;
67092;SDS011;54011;50.772;7.730;2022-12-08T08:28:44;14.25;;;6.20;;
67092;SDS011;54011;50.772;7.730;2022-12-08T08:31:13;8.68;;;3.25;;
67092;SDS011;54011;50.772;7.730;2022-12-08T08:33:39;6.25;;;3.30;;
67092;SDS011;54011;50.772;7.730;2022-12-08T08:36:05;9.43;;;3.70;;
67092;SDS011;54011;50.772;7.730;2022-12-08T08:38:34;20.02;;;6.72;;
67092;SDS011;54011;50.772;7.730;2022-12-08T08:41:06;15.43;;;5.43;;
67092;SDS011;54011;50.772;7.730;2022-12-08T08:43:33;16.92;;;6.90;;
67092;SDS011;54011;50.772;7.730;2022-12-08T08:46:00;13.00;;;5.22;;
67092;SDS011;54011;50.772;7.730;2022-12-08T08:48:26;13.85;;;6.47;;
67092;SDS011;54011;50.772;7.730;2022-12-08T08:50:53;9.70;;;4.15;;
67092;SDS011;54011;50.772;7.730;2022-12-08T08:53:23;12.15;;;6.57;;
67092;SDS011;54011;50.772;7.730;2022-12-08T08:55:49;14.85;;;6.38;;
67092;SDS011;54011;50.772;7.730;2022-12-08T08:58:17;13.80;;;6.38;;
67092;SDS011;54011;50.772;7.730;2022-12-08T09:00:42;15.43;;;7.60;;
67092;SDS011;54011;50.772;7.730;2022-12-08T09:03:08;13.35;;;6.28;;
67092;SDS011;54011;50.772;7.730;2022-12-08T09:05:33;13.20;;;6.93;;
67092;SDS011;54011;50.772;7.730;2022-12-08T09:08:01;13.82;;;6.97;;
67092;SDS011;54011;50.772;7.730;2022-12-08T09:10:29;12.63;;;7.18;;
67092;SDS011;54011;50.772;7.730;2022-12-08T09:13:01;12.65;;;7.43;;
67092;SDS011;54011;50.772;7.730;2022-12-08T09:15:26;16.63;;;8.18;;
67092;SDS011;54011;50.772;7.730;2022-12-08T09:17:52;14.32;;;8.55;;
67092;SDS011;54011;50.772;7.730;2022-12-08T09:20:17;15.23;;;7.70;;
67092;SDS011;54011;50.772;7.730;2022-12-08T09:22:42;10.88;;;5.95;;
67092;SDS011;54011;50.772;7.730;2022-12-08T09:25:08;19.33;;;7.72;;
67092;SDS011;54011;50.772;7.730;2022-12-08T09:27:33;15.15;;;7.20;;
67092;SDS011;54011;50.772;7.730;2022-12-08T09:29:59;9.15;;;4.25;;
67092;SDS011;54011;50.772;7.730;2022-12-08T09:32:25;18.88;;;9.02;;
67092;SDS011;54011;50.772;7.730;2022-12-08T09:34:50;16.45;;;7.70;;
67092;SDS011;54011;50.772;7.730;2022-12-08T09:37:15;15.38;;;7.75;;
67092;SDS011;54011;50.772;7.730;2022-12-08T09:39:41;18.02;;;7.00;;
67092;SDS011;54011;50.772;7.730;2022-12-08T09:42:08;15.82;;;6.57;;
67092;SDS011;54011;50.772;7.730;2022-12-08T09:47:14;12.30;;;6.10;;
67092;SDS011;54011;50.772;7.730;2022-12-08T09:50:06;7.95;;;4.03;;
67092;SDS011;54011;50.772;7.730;2022-12-08T09:52:42;19.73;;;9.73;;
67092;SDS011;54011;50.772;7.730;2022-12-08T09:55:23;14.68;;;7.00;;
67092;SDS011;54011;50.772;7.730;2022-12-08T09:58:01;11.63;;;5.47;;
67092;SDS011;54011;50.772;7.730;2022-12-08T10:00:29;13.45;;;6.80;;
67092;SDS011;54011;50.772;7.730;2022-12-08T10:02:55;10.85;;;5.00;;
67092;SDS011;54011;50.772;7.730;2022-12-08T10:05:21;9.88;;;4.80;;
67092;SDS011;54011;50.772;7.730;2022-12-08T10:08:01;9.13;;;5.22;;
67092;SDS011;54011;50.772;7.730;2022-12-08T10:10:38;11.13;;;6.00;;
67092;SDS011;54011;50.772;7.730;2022-12-08T10:13:15;14.90;;;7.13;;
67092;SDS011;54011;50.772;7.730;2022-12-08T10:18:56;15.60;;;7.18;;
67092;SDS011;54011;50.772;7.730;2022-12-08T10:21:35;13.18;;;5.70;;
67092;SDS011;54011;50.772;7.730;2022-12-08T10:24:05;15.20;;;8.32;;
67092;SDS011;54011;50.772;7.730;2022-12-08T10:26:37;7.97;;;4.35;;
67092;SDS011;54011;50.772;7.730;2022-12-08T10:29:03;13.95;;;7.47;;
67092;SDS011;54011;50.772;7.730;2022-12-08T10:31:32;14.55;;;7.28;;
67092;SDS011;54011;50.772;7.730;2022-12-08T10:34:09;13.25;;;4.63;;
67092;SDS011;54011;50.772;7.730;2022-12-08T10:36:45;14.65;;;5.85;;
67092;SDS011;54011;50.772;7.730;2022-12-08T10:41:59;13.50;;;6.10;;
67092;SDS011;54011;50.772;7.730;2022-12-08T10:47:22;7.47;;;4.30;;
67092;SDS011;54011;50.772;7.730;2022-12-08T10:50:04;13.30;;;6.70;;
67092;SDS011;54011;50.772;7.730;2022-12-08T10:52:39;11.82;;;4.57;;
67092;SDS011;54011;50.772;7.730;2022-12-08T10:55:12;8.15;;;4.82;;
67092;SDS011;54011;50.772;7.730;2022-12-08T10:57:41;11.88;;;6.28;;
67092;SDS011;54011;50.772;7.730;2022-12-08T11:00:10;4.07;;;2.30;;
67092;SDS011;54011;50.772;7.730;2022-12-08T11:02:53;13.07;;;6.90;;
67092;SDS011;54011;50.772;7.730;2022-12-08T11:05:25;8.43;;;3.67;;
67092;SDS011;54011;50.772;7.730;2022-12-08T11:07:56;15.40;;;6.63;;
67092;SDS011;54011;50.772;7.730;2022-12-08T11:10:36;11.40;;;6.63;;
67092;SDS011;54011;50.772;7.730;2022-12-08T11:13:19;7.20;;;3.25;;
67092;SDS011;54011;50.772;7.730;2022-12-08T11:15:47;3.60;;;2.28;;
67092;SDS011;54011;50.772;7.730;2022-12-08T11:18:24;11.98;;;6.10;;
67092;SDS011;54011;50.772;7.730;2022-12-08T11:20:55;6.20;;;3.57;;
67092;SDS011;54011;50.772;7.730;2022-12-08T11:23:24;9.73;;;3.70;;
67092;SDS011;54011;50.772;7.730;2022-12-08T11:25:53;7.38;;;3.35;;
67092;SDS011;54011;50.772;7.730;2022-12-08T11:28:22;11.65;;;3.88;;
67092;SDS011;54011;50.772;7.730;2022-12-08T11:30:53;4.88;;;2.55;;
67092;SDS011;54011;50.772;7.730;2022-12-08T11:33:24;4.18;;;2.17;;
67092;SDS011;54011;50.772;7.730;2022-12-08T11:35:54;10.50;;;3.63;;
67092;SDS011;54011;50.772;7.730;2022-12-08T11:38:30;11.05;;;4.13;;
67092;SDS011;54011;50.772;7.730;2022-12-08T11:41:09;5.53;;;2.58;;
67092;SDS011;54011;50.772;7.730;2022-12-08T11:43:41;4.53;;;2.55;;
67092;SDS011;54011;50.772;7.730;2022-12-08T11:46:19;3.92;;;1.85;;
67092;SDS011;54011;50.772;7.730;2022-12-08T11:48:56;5.95;;;2.63;;
67092;SDS011;54011;50.772;7.730;2022-12-08T11:54:09;7.40;;;2.63;;
67092;SDS011;54011;50.772;7.730;2022-12-08T11:56:39;2.92;;;1.67;;
67092;SDS011;54011;50.772;7.730;2022-12-08T11:59:14;9.35;;;2.95;;
67092;SDS011;54011;50.772;7.730;2022-12-08T12:01:43;5.38;;;2.65;;
67092;SDS011;54011;50.772;7.730;2022-12-08T12:10:11;8.68;;;3.22;;
67092;SDS011;54011;50.772;7.730;2022-12-08T12:12:45;7.63;;;3.53;;
67092;SDS011;54011;50.772;7.730;2022-12-08T12:18:26;10.63;;;3.13;;
67092;SDS011;54011;50.772;7.730;2022-12-08T12:21:21;6.53;;;2.85;;
67092;SDS011;54011;50.772;7.730;2022-12-08T12:24:03;8.60;;;4.22;;
67092;SDS011;54011;50.772;7.730;2022-12-08T12:26:33;8.20;;;3.50;;
67092;SDS011;54011;50.772;7.730;2022-12-08T12:32:02;11.07;;;4.53;;
67092;SDS011;54011;50.772;7.730;2022-12-08T12:34:31;10.65;;;4.68;;
67092;SDS011;54011;50.772;7.730;2022-12-08T12:37:07;8.70;;;4.38;;
67092;SDS011;54011;50.772;7.730;2022-12-08T12:47:51;9.93;;;4.30;;
67092;SDS011;54011;50.772;7.730;2022-12-08T12:58:20;13.68;;;6.03;;
67092;SDS011;54011;50.772;7.730;2022-12-08T13:00:46;10.93;;;4.93;;
67092;SDS011;54011;50.772;7.730;2022-12-08T13:03:13;17.35;;;6.65;;
67092;SDS011;54011;50.772;7.730;2022-12-08T13:05:46;15.32;;;6.75;;
67092;SDS011;54011;50.772;7.730;2022-12-08T13:08:18;13.45;;;6.40;;
67092;SDS011;54011;50.772;7.730;2022-12-08T13:10:58;11.93;;;5.97;;
67092;SDS011;54011;50.772;7.730;2022-12-08T13:13:26;10.82;;;4.68;;
67092;SDS011;54011;50.772;7.730;2022-12-08T13:15:55;10.90;;;5.47;;
67092;SDS011;54011;50.772;7.730;2022-12-08T13:18:36;3.30;;;2.10;;
67092;SDS011;54011;50.772;7.730;2022-12-08T13:34:14;11.85;;;5.15;;
67092;SDS011;54011;50.772;7.730;2022-12-08T13:47:28;12.68;;;4.65;;
67092;SDS011;54011;50.772;7.730;2022-12-08T13:50:03;8.65;;;4.57;;
67092;SDS011;54011;50.772;7.730;2022-12-08T13:52:37;9.07;;;4.25;;
67092;SDS011;54011;50.772;7.730;2022-12-08T13:55:16;5.53;;;2.78;;
67092;SDS011;54011;50.772;7.730;2022-12-08T13:57:49;10.13;;;4.30;;
67092;SDS011;54011;50.772;7.730;2022-12-08T14:00:15;10.55;;;4.75;;
67092;SDS011;54011;50.772;7.730;2022-12-08T14:02:46;11.68;;;4.53;;
67092;SDS011;54011;50.772;7.730;2022-12-08T14:07:42;7.95;;;4.20;;
67092;SDS011;54011;50.772;7.730;2022-12-08T14:10:09;14.13;;;4.80;;
67092;SDS011;54011;50.772;7.730;2022-12-08T14:12:47;7.70;;;4.18;;
67092;SDS011;54011;50.772;7.730;2022-12-08T14:15:19;11.65;;;5.00;;
67092;SDS011;54011;50.772;7.730;2022-12-08T14:17:55;9.45;;;4.85;;
67092;SDS011;54011;50.772;7.730;2022-12-08T14:20:28;11.32;;;4.68;;
67092;SDS011;54011;50.772;7.730;2022-12-08T14:22:55;8.45;;;4.60;;
67092;SDS011;54011;50.772;7.730;2022-12-08T14:25:25;10.63;;;4.80;;
67092;SDS011;54011;50.772;7.730;2022-12-08T14:27:56;11.27;;;4.90;;
67092;SDS011;54011;50.772;7.730;2022-12-08T14:30:27;13.00;;;5.53;;
67092;SDS011;54011;50.772;7.730;2022-12-08T14:32:55;10.00;;;5.20;;
67092;SDS011;54011;50.772;7.730;2022-12-08T14:35:31;9.47;;;4.63;;
67092;SDS011;54011;50.772;7.730;2022-12-08T14:38:03;13.65;;;5.20;;
67092;SDS011;54011;50.772;7.730;2022-12-08T14:40:34;12.20;;;4.68;;
67092;SDS011;54011;50.772;7.730;2022-12-08T14:43:10;10.00;;;4.88;;
67092;SDS011;54011;50.772;7.730;2022-12-08T14:53:58;11.10;;;4.72;;
67092;SDS011;54011;50.772;7.730;2022-12-08T14:56:51;11.23;;;4.95;;
67092;SDS011;54011;50.772;7.730;2022-12-08T14:59:29;9.88;;;4.82;;
67092;SDS011;54011;50.772;7.730;2022-12-08T15:04:37;10.23;;;5.53;;
67092;SDS011;54011;50.772;7.730;2022-12-08T15:07:26;15.00;;;7.20;;
67092;SDS011;54011;50.772;7.730;2022-12-08T15:12:39;12.50;;;6.43;;
67092;SDS011;54011;50.772;7.730;2022-12-08T15:15:19;14.63;;;7.37;;
67092;SDS011;54011;50.772;7.730;2022-12-08T15:17:49;13.57;;;5.65;;
67092;SDS011;54011;50.772;7.730;2022-12-08T15:23:38;12.50;;;5.78;;
67092;SDS011;54011;50.772;7.730;2022-12-08T15:25:46;12.27;;;5.07;;
67092;SDS011;54011;50.772;7.730;2022-12-08T15:28:12;8.45;;;4.70;;
67092;SDS011;54011;50.772;7.730;2022-12-08T15:30:40;14.23;;;5.07;;
67092;SDS011;54011;50.772;7.730;2022-12-08T15:33:06;12.43;;;4.45;;
67092;SDS011;54011;50.772;7.730;2022-12-08T15:35:32;10.88;;;4.82;;
67092;SDS011;54011;50.772;7.730;2022-12-08T15:38:10;13.98;;;4.90;;
67092;SDS011;54011;50.772;7.730;2022-12-08T15:40:45;10.75;;;4.50;;
67092;SDS011;54011;50.772;7.730;2022-12-08T15:43:17;12.90;;;4.88;;
67092;SDS011;54011;50.772;7.730;2022-12-08T15:45:43;9.40;;;4.65;;
67092;SDS011;54011;50.772;7.730;2022-12-08T15:48:25;11.00;;;4.18;;
67092;SDS011;54011;50.772;7.730;2022-12-08T15:50:53;6.78;;;3.80;;
67092;SDS011;54011;50.772;7.730;2022-12-08T15:53:19;9.50;;;4.18;;
67092;SDS011;54011;50.772;7.730;2022-12-08T15:55:47;9.95;;;4.13;;
67092;SDS011;54011;50.772;7.730;2022-12-08T15:58:17;10.80;;;4.60;;
67092;SDS011;54011;50.772;7.730;2022-12-08T16:00:48;10.35;;;3.90;;
67092;SDS011;54011;50.772;7.730;2022-12-08T16:05:54;8.02;;;3.17;;
67092;SDS011;54011;50.772;7.730;2022-12-08T16:08:23;10.38;;;3.42;;
67092;SDS011;54011;50.772;7.730;2022-12-08T16:10:49;7.05;;;3.50;;
67092;SDS011;54011;50.772;7.730;2022-12-08T16:13:15;8.80;;;3.30;;
67092;SDS011;54011;50.772;7.730;2022-12-08T16:16:01;8.57;;;4.03;;
67092;SDS011;54011;50.772;7.730;2022-12-08T16:18:29;7.13;;;3.53;;
67092;SDS011;54011;50.772;7.730;2022-12-08T16:20:57;7.07;;;3.65;;
67092;SDS011;54011;50.772;7.730;2022-12-08T16:23:23;8.57;;;4.07;;
67092;SDS011;54011;50.772;7.730;2022-12-08T16:25:48;9.48;;;4.05;;
67092;SDS011;54011;50.772;7.730;2022-12-08T16:28:14;8.80;;;3.45;;
67092;SDS011;54011;50.772;7.730;2022-12-08T16:30:39;8.27;;;3.92;;
67092;SDS011;54011;50.772;7.730;2022-12-08T16:33:05;10.00;;;3.55;;
67092;SDS011;54011;50.772;7.730;2022-12-08T16:35:32;10.82;;;3.53;;
67092;SDS011;54011;50.772;7.730;2022-12-08T16:37:57;7.40;;;3.70;;
67092;SDS011;54011;50.772;7.730;2022-12-08T16:40:22;11.70;;;4.18;;
67092;SDS011;54011;50.772;7.730;2022-12-08T16:42:48;6.68;;;3.55;;